sensor_id;sensor_type;location;lat;lon;timestamp;temperature;humidity
79187;SHT31;68762;51.980;5.646;2023-05-10T00:00:52;17.1;70.1
79187;SHT31;68762;51.980;5.646;2023-05-10T00:03:20;17.1;70.3
79187;SHT31;68762;51.980;5.646;2023-05-10T00:05:49;17.0;70.3
79187;SHT31;68762;51.980;5.646;2023-05-10T00:08:17;17.0;70.3
79187;SHT31;68762;51.980;5.646;2023-05-10T00:10:46;17.0;70.4
79187;SHT31;68762;51.980;5.646;2023-05-10T00:13:15;17.0;70.5
79187;SHT31;68762;51.980;5.646;2023-05-10T00:15:44;17.0;70.4
79187;SHT31;68762;51.980;5.646;2023-05-10T00:18:12;17.0;70.5
79187;SHT31;68762;51.980;5.646;2023-05-10T00:20:41;17.0;70.6
79187;SHT31;68762;51.980;5.646;2023-05-10T00:23:12;17.0;70.5
79187;SHT31;68762;51.980;5.646;2023-05-10T00:25:41;17.0;70.8
79187;SHT31;68762;51.980;5.646;2023-05-10T00:28:09;17.0;70.6
79187;SHT31;68762;51.980;5.646;2023-05-10T00:30:39;17.0;70.7
79187;SHT31;68762;51.980;5.646;2023-05-10T00:33:09;17.0;70.7
79187;SHT31;68762;51.980;5.646;2023-05-10T00:35:39;17.0;70.8
79187;SHT31;68762;51.980;5.646;2023-05-10T00:38:07;17.0;70.7
79187;SHT31;68762;51.980;5.646;2023-05-10T00:40:37;17.0;70.7
79187;SHT31;68762;51.980;5.646;2023-05-10T00:43:05;17.0;70.8
79187;SHT31;68762;51.980;5.646;2023-05-10T00:45:36;17.0;70.8
79187;SHT31;68762;51.980;5.646;2023-05-10T00:48:06;17.0;70.9
79187;SHT31;68762;51.980;5.646;2023-05-10T00:50:35;17.0;70.9
79187;SHT31;68762;51.980;5.646;2023-05-10T00:53:03;16.9;71.1
79187;SHT31;68762;51.980;5.646;2023-05-10T00:55:32;16.9;71.2
79187;SHT31;68762;51.980;5.646;2023-05-10T00:58:01;16.9;71.2
79187;SHT31;68762;51.980;5.646;2023-05-10T01:00:32;16.9;71.4
79187;SHT31;68762;51.980;5.646;2023-05-10T01:03:03;16.9;71.4
79187;SHT31;68762;51.980;5.646;2023-05-10T01:05:32;16.9;71.6
79187;SHT31;68762;51.980;5.646;2023-05-10T01:08:01;16.9;71.8
79187;SHT31;68762;51.980;5.646;2023-05-10T01:10:30;16.9;71.9
79187;SHT31;68762;51.980;5.646;2023-05-10T01:12:59;16.9;72.1
79187;SHT31;68762;51.980;5.646;2023-05-10T01:15:29;16.9;72.2
79187;SHT31;68762;51.980;5.646;2023-05-10T01:18:02;16.8;72.2
79187;SHT31;68762;51.980;5.646;2023-05-10T01:20:41;16.8;72.6
79187;SHT31;68762;51.980;5.646;2023-05-10T01:23:34;16.9;72.5
79187;SHT31;68762;51.980;5.646;2023-05-10T01:26:16;16.9;72.4
79187;SHT31;68762;51.980;5.646;2023-05-10T01:29:22;16.9;72.3
79187;SHT31;68762;51.980;5.646;2023-05-10T01:32:18;16.9;72.2
79187;SHT31;68762;51.980;5.646;2023-05-10T01:34:58;16.9;72.2
79187;SHT31;68762;51.980;5.646;2023-05-10T01:37:36;16.9;72.2
79187;SHT31;68762;51.980;5.646;2023-05-10T01:40:13;16.9;72.3
79187;SHT31;68762;51.980;5.646;2023-05-10T01:42:49;16.9;72.0
79187;SHT31;68762;51.980;5.646;2023-05-10T01:45:27;16.9;72.0
79187;SHT31;68762;51.980;5.646;2023-05-10T01:48:08;16.9;71.8
79187;SHT31;68762;51.980;5.646;2023-05-10T01:50:41;16.9;71.7
79187;SHT31;68762;51.980;5.646;2023-05-10T01:53:13;16.9;71.6
79187;SHT31;68762;51.980;5.646;2023-05-10T01:55:49;16.9;71.6
79187;SHT31;68762;51.980;5.646;2023-05-10T01:58:22;16.9;71.9
79187;SHT31;68762;51.980;5.646;2023-05-10T02:00:52;16.9;71.9
79187;SHT31;68762;51.980;5.646;2023-05-10T02:03:24;16.9;72.2
79187;SHT31;68762;51.980;5.646;2023-05-10T02:05:56;16.9;72.0
79187;SHT31;68762;51.980;5.646;2023-05-10T02:08:26;16.9;72.1
79187;SHT31;68762;51.980;5.646;2023-05-10T02:10:57;16.9;71.9
79187;SHT31;68762;51.980;5.646;2023-05-10T02:13:31;16.9;71.7
79187;SHT31;68762;51.980;5.646;2023-05-10T02:16:02;16.9;71.6
79187;SHT31;68762;51.980;5.646;2023-05-10T02:18:34;16.9;71.9
79187;SHT31;68762;51.980;5.646;2023-05-10T02:21:06;16.9;71.7
79187;SHT31;68762;51.980;5.646;2023-05-10T02:23:36;16.9;71.6
79187;SHT31;68762;51.980;5.646;2023-05-10T02:26:06;16.9;71.3
79187;SHT31;68762;51.980;5.646;2023-05-10T02:28:37;16.9;71.3
79187;SHT31;68762;51.980;5.646;2023-05-10T02:31:07;16.9;71.3
79187;SHT31;68762;51.980;5.646;2023-05-10T02:33:38;16.9;71.1
79187;SHT31;68762;51.980;5.646;2023-05-10T02:36:09;16.9;70.8
79187;SHT31;68762;51.980;5.646;2023-05-10T02:38:40;16.9;71.1
79187;SHT31;68762;51.980;5.646;2023-05-10T02:41:10;16.9;70.9
79187;SHT31;68762;51.980;5.646;2023-05-10T02:43:40;16.9;70.8
79187;SHT31;68762;51.980;5.646;2023-05-10T02:46:10;16.9;70.4
79187;SHT31;68762;51.980;5.646;2023-05-10T02:48:40;16.9;70.3
79187;SHT31;68762;51.980;5.646;2023-05-10T02:51:14;16.9;70.4
79187;SHT31;68762;51.980;5.646;2023-05-10T02:53:47;16.8;70.1
79187;SHT31;68762;51.980;5.646;2023-05-10T02:56:34;16.8;69.9
79187;SHT31;68762;51.980;5.646;2023-05-10T02:58:58;16.8;69.3
79187;SHT31;68762;51.980;5.646;2023-05-10T03:01:27;16.8;69.4
79187;SHT31;68762;51.980;5.646;2023-05-10T03:03:57;16.8;69.6
79187;SHT31;68762;51.980;5.646;2023-05-10T03:06:26;16.7;69.7
79187;SHT31;68762;51.980;5.646;2023-05-10T03:08:55;16.7;69.8
79187;SHT31;68762;51.980;5.646;2023-05-10T03:11:39;16.7;70.0
79187;SHT31;68762;51.980;5.646;2023-05-10T03:14:21;16.7;69.7
79187;SHT31;68762;51.980;5.646;2023-05-10T03:16:58;16.7;69.8
79187;SHT31;68762;51.980;5.646;2023-05-10T03:19:35;16.6;70.1
79187;SHT31;68762;51.980;5.646;2023-05-10T03:22:10;16.6;70.0
79187;SHT31;68762;51.980;5.646;2023-05-10T03:24:41;16.6;69.8
79187;SHT31;68762;51.980;5.646;2023-05-10T03:27:11;16.6;69.9
79187;SHT31;68762;51.980;5.646;2023-05-10T03:29:44;16.6;70.1
79187;SHT31;68762;51.980;5.646;2023-05-10T03:32:14;16.6;70.5
79187;SHT31;68762;51.980;5.646;2023-05-10T03:34:43;16.6;70.2
79187;SHT31;68762;51.980;5.646;2023-05-10T03:37:11;16.6;70.2
79187;SHT31;68762;51.980;5.646;2023-05-10T03:39:40;16.6;70.2
79187;SHT31;68762;51.980;5.646;2023-05-10T03:42:10;16.5;70.2
79187;SHT31;68762;51.980;5.646;2023-05-10T03:44:40;16.5;70.5
79187;SHT31;68762;51.980;5.646;2023-05-10T03:47:10;16.5;70.8
79187;SHT31;68762;51.980;5.646;2023-05-10T03:49:38;16.5;71.0
79187;SHT31;68762;51.980;5.646;2023-05-10T03:52:07;16.5;70.8
79187;SHT31;68762;51.980;5.646;2023-05-10T03:54:36;16.5;70.8
79187;SHT31;68762;51.980;5.646;2023-05-10T03:57:04;16.5;70.8
79187;SHT31;68762;51.980;5.646;2023-05-10T03:59:33;16.5;70.6
79187;SHT31;68762;51.980;5.646;2023-05-10T04:02:01;16.4;70.8
79187;SHT31;68762;51.980;5.646;2023-05-10T04:04:30;16.4;71.1
79187;SHT31;68762;51.980;5.646;2023-05-10T04:06:59;16.4;71.1
79187;SHT31;68762;51.980;5.646;2023-05-10T04:09:28;16.4;70.9
79187;SHT31;68762;51.980;5.646;2023-05-10T04:11:56;16.4;71.2
79187;SHT31;68762;51.980;5.646;2023-05-10T04:14:25;16.4;71.0
79187;SHT31;68762;51.980;5.646;2023-05-10T04:16:53;16.4;71.1
79187;SHT31;68762;51.980;5.646;2023-05-10T04:19:22;16.4;70.9
79187;SHT31;68762;51.980;5.646;2023-05-10T04:21:50;16.4;71.1
79187;SHT31;68762;51.980;5.646;2023-05-10T04:24:20;16.4;71.4
79187;SHT31;68762;51.980;5.646;2023-05-10T04:26:48;16.4;71.0
79187;SHT31;68762;51.980;5.646;2023-05-10T04:29:17;16.4;71.2
79187;SHT31;68762;51.980;5.646;2023-05-10T04:31:46;16.4;71.1
79187;SHT31;68762;51.980;5.646;2023-05-10T04:34:15;16.4;70.9
79187;SHT31;68762;51.980;5.646;2023-05-10T04:36:44;16.5;70.9
79187;SHT31;68762;51.980;5.646;2023-05-10T04:39:13;16.5;70.7
79187;SHT31;68762;51.980;5.646;2023-05-10T04:41:41;16.5;70.7
79187;SHT31;68762;51.980;5.646;2023-05-10T04:44:11;16.5;70.7
79187;SHT31;68762;51.980;5.646;2023-05-10T04:46:40;16.5;70.8
79187;SHT31;68762;51.980;5.646;2023-05-10T04:49:09;16.5;70.8
79187;SHT31;68762;51.980;5.646;2023-05-10T04:51:38;16.5;70.9
79187;SHT31;68762;51.980;5.646;2023-05-10T04:54:06;16.5;70.5
79187;SHT31;68762;51.980;5.646;2023-05-10T04:56:35;16.5;70.8
79187;SHT31;68762;51.980;5.646;2023-05-10T04:59:04;16.5;70.7
79187;SHT31;68762;51.980;5.646;2023-05-10T05:01:32;16.5;70.7
79187;SHT31;68762;51.980;5.646;2023-05-10T05:04:03;16.5;70.9
79187;SHT31;68762;51.980;5.646;2023-05-10T05:06:33;16.5;70.9
79187;SHT31;68762;51.980;5.646;2023-05-10T05:09:01;16.5;71.0
79187;SHT31;68762;51.980;5.646;2023-05-10T05:11:32;16.5;71.2
79187;SHT31;68762;51.980;5.646;2023-05-10T05:14:01;16.5;71.5
79187;SHT31;68762;51.980;5.646;2023-05-10T05:16:30;16.5;71.2
79187;SHT31;68762;51.980;5.646;2023-05-10T05:19:00;16.5;70.8
79187;SHT31;68762;51.980;5.646;2023-05-10T05:21:28;16.5;70.9
79187;SHT31;68762;51.980;5.646;2023-05-10T05:23:58;16.5;71.1
79187;SHT31;68762;51.980;5.646;2023-05-10T05:26:28;16.6;70.9
79187;SHT31;68762;51.980;5.646;2023-05-10T05:28:56;16.6;70.9
79187;SHT31;68762;51.980;5.646;2023-05-10T05:31:25;16.6;70.7
79187;SHT31;68762;51.980;5.646;2023-05-10T05:33:53;16.6;71.1
79187;SHT31;68762;51.980;5.646;2023-05-10T05:36:22;16.6;70.8
79187;SHT31;68762;51.980;5.646;2023-05-10T05:38:51;16.6;70.9
79187;SHT31;68762;51.980;5.646;2023-05-10T05:41:19;16.6;71.0
79187;SHT31;68762;51.980;5.646;2023-05-10T05:43:48;16.5;71.0
79187;SHT31;68762;51.980;5.646;2023-05-10T05:46:17;16.5;71.4
79187;SHT31;68762;51.980;5.646;2023-05-10T05:48:46;16.5;71.6
79187;SHT31;68762;51.980;5.646;2023-05-10T05:51:14;16.6;71.4
79187;SHT31;68762;51.980;5.646;2023-05-10T05:53:43;16.6;71.4
79187;SHT31;68762;51.980;5.646;2023-05-10T05:56:12;16.6;71.2
79187;SHT31;68762;51.980;5.646;2023-05-10T05:58:41;16.6;71.4
79187;SHT31;68762;51.980;5.646;2023-05-10T06:01:09;16.6;71.4
79187;SHT31;68762;51.980;5.646;2023-05-10T06:03:38;16.6;71.3
79187;SHT31;68762;51.980;5.646;2023-05-10T06:06:09;16.6;71.4
79187;SHT31;68762;51.980;5.646;2023-05-10T06:08:37;16.6;71.3
79187;SHT31;68762;51.980;5.646;2023-05-10T06:11:06;16.6;71.2
79187;SHT31;68762;51.980;5.646;2023-05-10T06:13:34;16.6;71.6
79187;SHT31;68762;51.980;5.646;2023-05-10T06:16:03;16.6;71.8
79187;SHT31;68762;51.980;5.646;2023-05-10T06:18:31;16.6;71.9
79187;SHT31;68762;51.980;5.646;2023-05-10T06:21:00;16.7;71.3
79187;SHT31;68762;51.980;5.646;2023-05-10T06:23:29;16.7;71.2
79187;SHT31;68762;51.980;5.646;2023-05-10T06:25:58;16.7;71.1
79187;SHT31;68762;51.980;5.646;2023-05-10T06:28:26;16.7;71.2
79187;SHT31;68762;51.980;5.646;2023-05-10T06:30:55;16.7;71.0
79187;SHT31;68762;51.980;5.646;2023-05-10T06:33:23;16.8;70.8
79187;SHT31;68762;51.980;5.646;2023-05-10T06:35:52;16.8;70.9
79187;SHT31;68762;51.980;5.646;2023-05-10T06:38:21;16.8;71.3
79187;SHT31;68762;51.980;5.646;2023-05-10T06:40:49;16.8;71.3
79187;SHT31;68762;51.980;5.646;2023-05-10T06:43:20;16.8;71.1
79187;SHT31;68762;51.980;5.646;2023-05-10T06:45:49;16.8;71.1
79187;SHT31;68762;51.980;5.646;2023-05-10T06:48:18;16.8;71.5
79187;SHT31;68762;51.980;5.646;2023-05-10T06:50:48;16.8;71.1
79187;SHT31;68762;51.980;5.646;2023-05-10T06:53:17;16.8;71.6
79187;SHT31;68762;51.980;5.646;2023-05-10T06:55:46;16.8;71.3
79187;SHT31;68762;51.980;5.646;2023-05-10T06:58:14;16.8;71.4
79187;SHT31;68762;51.980;5.646;2023-05-10T07:00:43;16.8;71.6
79187;SHT31;68762;51.980;5.646;2023-05-10T07:03:13;16.8;71.1
79187;SHT31;68762;51.980;5.646;2023-05-10T07:05:42;16.8;71.2
79187;SHT31;68762;51.980;5.646;2023-05-10T07:08:10;16.8;71.5
79187;SHT31;68762;51.980;5.646;2023-05-10T07:10:39;16.8;71.0
79187;SHT31;68762;51.980;5.646;2023-05-10T07:13:08;16.8;71.0
79187;SHT31;68762;51.980;5.646;2023-05-10T07:15:37;16.9;70.9
79187;SHT31;68762;51.980;5.646;2023-05-10T07:18:05;16.9;71.0
79187;SHT31;68762;51.980;5.646;2023-05-10T07:20:34;16.9;70.3
79187;SHT31;68762;51.980;5.646;2023-05-10T07:23:03;16.9;70.0
79187;SHT31;68762;51.980;5.646;2023-05-10T07:25:31;16.9;70.2
79187;SHT31;68762;51.980;5.646;2023-05-10T07:28:00;16.9;70.1
79187;SHT31;68762;51.980;5.646;2023-05-10T07:30:28;16.9;70.6
79187;SHT31;68762;51.980;5.646;2023-05-10T07:32:57;16.9;71.3
79187;SHT31;68762;51.980;5.646;2023-05-10T07:35:26;16.9;71.0
79187;SHT31;68762;51.980;5.646;2023-05-10T07:37:55;16.9;70.9
79187;SHT31;68762;51.980;5.646;2023-05-10T07:40:23;17.0;71.6
79187;SHT31;68762;51.980;5.646;2023-05-10T07:42:52;17.0;70.5
79187;SHT31;68762;51.980;5.646;2023-05-10T07:45:20;17.1;72.2
79187;SHT31;68762;51.980;5.646;2023-05-10T07:47:49;17.2;70.9
79187;SHT31;68762;51.980;5.646;2023-05-10T07:50:17;17.2;70.6
79187;SHT31;68762;51.980;5.646;2023-05-10T07:52:47;17.3;69.4
79187;SHT31;68762;51.980;5.646;2023-05-10T07:55:18;17.3;68.6
79187;SHT31;68762;51.980;5.646;2023-05-10T07:57:49;17.4;67.9
79187;SHT31;68762;51.980;5.646;2023-05-10T08:00:19;17.4;67.5
79187;SHT31;68762;51.980;5.646;2023-05-10T08:02:48;17.5;66.8
79187;SHT31;68762;51.980;5.646;2023-05-10T08:05:17;17.5;66.5
79187;SHT31;68762;51.980;5.646;2023-05-10T08:07:45;17.5;64.7
79187;SHT31;68762;51.980;5.646;2023-05-10T08:10:14;17.5;66.2
79187;SHT31;68762;51.980;5.646;2023-05-10T08:12:45;17.5;65.5
79187;SHT31;68762;51.980;5.646;2023-05-10T08:15:15;17.5;66.4
79187;SHT31;68762;51.980;5.646;2023-05-10T08:17:44;17.5;65.8
79187;SHT31;68762;51.980;5.646;2023-05-10T08:20:12;17.5;66.7
79187;SHT31;68762;51.980;5.646;2023-05-10T08:22:43;17.5;66.3
79187;SHT31;68762;51.980;5.646;2023-05-10T08:25:11;17.5;65.9
79187;SHT31;68762;51.980;5.646;2023-05-10T08:27:41;17.5;65.3
79187;SHT31;68762;51.980;5.646;2023-05-10T08:30:12;17.6;66.1
79187;SHT31;68762;51.980;5.646;2023-05-10T08:32:41;17.6;65.5
79187;SHT31;68762;51.980;5.646;2023-05-10T08:35:11;17.6;67.5
79187;SHT31;68762;51.980;5.646;2023-05-10T08:37:42;17.7;66.5
79187;SHT31;68762;51.980;5.646;2023-05-10T08:40:12;17.7;65.9
79187;SHT31;68762;51.980;5.646;2023-05-10T08:42:51;17.8;66.1
79187;SHT31;68762;51.980;5.646;2023-05-10T08:45:23;17.9;64.9
79187;SHT31;68762;51.980;5.646;2023-05-10T08:47:52;18.0;65.7
79187;SHT31;68762;51.980;5.646;2023-05-10T08:50:21;18.0;64.0
79187;SHT31;68762;51.980;5.646;2023-05-10T08:52:55;18.1;64.0
79187;SHT31;68762;51.980;5.646;2023-05-10T08:55:24;18.2;61.3
79187;SHT31;68762;51.980;5.646;2023-05-10T08:57:53;18.3;62.5
79187;SHT31;68762;51.980;5.646;2023-05-10T09:00:22;18.4;60.6
79187;SHT31;68762;51.980;5.646;2023-05-10T09:02:51;18.5;63.4
79187;SHT31;68762;51.980;5.646;2023-05-10T09:05:20;18.5;62.8
79187;SHT31;68762;51.980;5.646;2023-05-10T09:07:49;18.6;61.8
79187;SHT31;68762;51.980;5.646;2023-05-10T09:10:18;18.6;61.2
79187;SHT31;68762;51.980;5.646;2023-05-10T09:12:48;18.7;60.5
79187;SHT31;68762;51.980;5.646;2023-05-10T09:15:18;18.7;61.8
79187;SHT31;68762;51.980;5.646;2023-05-10T09:17:49;18.7;60.1
79187;SHT31;68762;51.980;5.646;2023-05-10T09:20:19;18.8;59.5
79187;SHT31;68762;51.980;5.646;2023-05-10T09:22:49;18.8;59.0
79187;SHT31;68762;51.980;5.646;2023-05-10T09:25:19;18.8;59.0
79187;SHT31;68762;51.980;5.646;2023-05-10T09:27:49;18.8;59.8
79187;SHT31;68762;51.980;5.646;2023-05-10T09:30:25;18.8;61.7
79187;SHT31;68762;51.980;5.646;2023-05-10T09:32:57;18.8;62.0
79187;SHT31;68762;51.980;5.646;2023-05-10T09:35:27;18.8;62.1
79187;SHT31;68762;51.980;5.646;2023-05-10T09:37:58;18.9;60.7
79187;SHT31;68762;51.980;5.646;2023-05-10T09:40:30;18.9;60.8
79187;SHT31;68762;51.980;5.646;2023-05-10T09:43:00;18.9;59.3
79187;SHT31;68762;51.980;5.646;2023-05-10T09:45:30;18.9;60.0
79187;SHT31;68762;51.980;5.646;2023-05-10T09:48:01;18.9;60.1
79187;SHT31;68762;51.980;5.646;2023-05-10T09:50:30;18.9;61.3
79187;SHT31;68762;51.980;5.646;2023-05-10T09:53:02;18.9;61.3
79187;SHT31;68762;51.980;5.646;2023-05-10T09:55:41;19.0;59.9
79187;SHT31;68762;51.980;5.646;2023-05-10T09:58:12;19.0;59.0
79187;SHT31;68762;51.980;5.646;2023-05-10T10:00:42;19.0;59.1
79187;SHT31;68762;51.980;5.646;2023-05-10T10:03:15;19.0;61.0
79187;SHT31;68762;51.980;5.646;2023-05-10T10:05:45;19.0;60.3
79187;SHT31;68762;51.980;5.646;2023-05-10T10:08:15;19.0;60.2
79187;SHT31;68762;51.980;5.646;2023-05-10T10:10:45;19.0;59.4
79187;SHT31;68762;51.980;5.646;2023-05-10T10:13:14;19.1;61.1
79187;SHT31;68762;51.980;5.646;2023-05-10T10:15:43;19.1;61.3
79187;SHT31;68762;51.980;5.646;2023-05-10T10:18:14;19.1;60.9
79187;SHT31;68762;51.980;5.646;2023-05-10T10:20:43;19.1;61.9
79187;SHT31;68762;51.980;5.646;2023-05-10T10:23:12;19.1;60.0
79187;SHT31;68762;51.980;5.646;2023-05-10T10:25:41;19.2;57.9
79187;SHT31;68762;51.980;5.646;2023-05-10T10:28:23;19.2;58.5
79187;SHT31;68762;51.980;5.646;2023-05-10T10:30:54;19.2;59.8
79187;SHT31;68762;51.980;5.646;2023-05-10T10:33:43;19.2;60.4
79187;SHT31;68762;51.980;5.646;2023-05-10T10:36:15;19.2;59.1
79187;SHT31;68762;51.980;5.646;2023-05-10T10:38:57;19.3;60.1
79187;SHT31;68762;51.980;5.646;2023-05-10T10:41:35;19.3;57.7
79187;SHT31;68762;51.980;5.646;2023-05-10T10:44:37;19.3;59.5
79187;SHT31;68762;51.980;5.646;2023-05-10T10:47:29;19.3;59.3
79187;SHT31;68762;51.980;5.646;2023-05-10T10:50:06;19.4;59.2
79187;SHT31;68762;51.980;5.646;2023-05-10T10:52:36;19.4;58.9
79187;SHT31;68762;51.980;5.646;2023-05-10T10:55:08;19.4;59.1
79187;SHT31;68762;51.980;5.646;2023-05-10T10:57:48;19.4;59.8
79187;SHT31;68762;51.980;5.646;2023-05-10T11:00:23;19.4;58.9
79187;SHT31;68762;51.980;5.646;2023-05-10T11:02:54;19.4;59.2
79187;SHT31;68762;51.980;5.646;2023-05-10T11:06:30;19.4;59.5
79187;SHT31;68762;51.980;5.646;2023-05-10T11:09:07;19.4;57.7
79187;SHT31;68762;51.980;5.646;2023-05-10T11:11:37;19.4;59.1
79187;SHT31;68762;51.980;5.646;2023-05-10T11:14:10;19.4;59.5
79187;SHT31;68762;51.980;5.646;2023-05-10T11:16:45;19.4;58.7
79187;SHT31;68762;51.980;5.646;2023-05-10T11:19:14;19.4;57.4
79187;SHT31;68762;51.980;5.646;2023-05-10T11:21:48;19.4;59.1
79187;SHT31;68762;51.980;5.646;2023-05-10T11:24:18;19.4;58.7
79187;SHT31;68762;51.980;5.646;2023-05-10T11:26:49;19.4;58.3
79187;SHT31;68762;51.980;5.646;2023-05-10T11:29:21;19.4;59.0
79187;SHT31;68762;51.980;5.646;2023-05-10T11:31:53;19.4;59.3
79187;SHT31;68762;51.980;5.646;2023-05-10T11:34:26;19.4;59.0
79187;SHT31;68762;51.980;5.646;2023-05-10T11:36:57;19.5;57.9
79187;SHT31;68762;51.980;5.646;2023-05-10T11:39:28;19.5;57.3
79187;SHT31;68762;51.980;5.646;2023-05-10T11:41:58;19.5;58.4
79187;SHT31;68762;51.980;5.646;2023-05-10T11:44:31;19.5;59.7
79187;SHT31;68762;51.980;5.646;2023-05-10T11:47:01;19.6;60.0
79187;SHT31;68762;51.980;5.646;2023-05-10T11:49:30;19.6;59.5
79187;SHT31;68762;51.980;5.646;2023-05-10T11:52:06;19.7;58.5
79187;SHT31;68762;51.980;5.646;2023-05-10T11:54:35;19.8;57.7
79187;SHT31;68762;51.980;5.646;2023-05-10T11:57:04;19.8;59.1
79187;SHT31;68762;51.980;5.646;2023-05-10T11:59:34;19.9;58.0
79187;SHT31;68762;51.980;5.646;2023-05-10T12:02:03;20.0;56.1
79187;SHT31;68762;51.980;5.646;2023-05-10T12:04:32;20.0;56.6
79187;SHT31;68762;51.980;5.646;2023-05-10T12:07:01;20.1;57.8
79187;SHT31;68762;51.980;5.646;2023-05-10T12:09:30;20.1;57.2
79187;SHT31;68762;51.980;5.646;2023-05-10T12:11:59;20.2;57.2
79187;SHT31;68762;51.980;5.646;2023-05-10T12:14:28;20.2;56.7
79187;SHT31;68762;51.980;5.646;2023-05-10T12:16:59;20.3;55.9
79187;SHT31;68762;51.980;5.646;2023-05-10T12:19:28;20.3;54.5
79187;SHT31;68762;51.980;5.646;2023-05-10T12:21:56;20.3;57.3
79187;SHT31;68762;51.980;5.646;2023-05-10T12:24:25;20.4;57.4
79187;SHT31;68762;51.980;5.646;2023-05-10T12:26:54;20.4;56.1
79187;SHT31;68762;51.980;5.646;2023-05-10T12:29:22;20.5;57.5
79187;SHT31;68762;51.980;5.646;2023-05-10T12:31:54;20.6;54.7
79187;SHT31;68762;51.980;5.646;2023-05-10T12:34:29;20.6;54.9
79187;SHT31;68762;51.980;5.646;2023-05-10T12:37:00;20.7;54.4
79187;SHT31;68762;51.980;5.646;2023-05-10T12:39:39;20.8;54.3
79187;SHT31;68762;51.980;5.646;2023-05-10T12:42:09;20.8;53.0
79187;SHT31;68762;51.980;5.646;2023-05-10T12:44:39;20.8;54.5
79187;SHT31;68762;51.980;5.646;2023-05-10T12:47:08;20.8;54.2
79187;SHT31;68762;51.980;5.646;2023-05-10T12:49:38;20.8;54.9
79187;SHT31;68762;51.980;5.646;2023-05-10T12:52:06;20.9;55.0
79187;SHT31;68762;51.980;5.646;2023-05-10T12:54:35;20.9;55.2
79187;SHT31;68762;51.980;5.646;2023-05-10T12:57:03;20.9;54.3
79187;SHT31;68762;51.980;5.646;2023-05-10T12:59:32;20.9;53.9
79187;SHT31;68762;51.980;5.646;2023-05-10T13:02:01;20.9;54.5
79187;SHT31;68762;51.980;5.646;2023-05-10T13:04:31;20.8;54.6
79187;SHT31;68762;51.980;5.646;2023-05-10T13:07:01;20.8;55.0
79187;SHT31;68762;51.980;5.646;2023-05-10T13:09:32;20.7;55.8
79187;SHT31;68762;51.980;5.646;2023-05-10T13:12:01;20.6;55.8
79187;SHT31;68762;51.980;5.646;2023-05-10T13:14:31;20.5;56.3
79187;SHT31;68762;51.980;5.646;2023-05-10T13:17:00;20.4;57.0
79187;SHT31;68762;51.980;5.646;2023-05-10T13:19:30;20.3;57.7
79187;SHT31;68762;51.980;5.646;2023-05-10T13:21:59;20.2;58.2
79187;SHT31;68762;51.980;5.646;2023-05-10T13:24:27;20.1;57.7
79187;SHT31;68762;51.980;5.646;2023-05-10T13:26:56;20.0;58.5
79187;SHT31;68762;51.980;5.646;2023-05-10T13:29:25;19.9;60.3
79187;SHT31;68762;51.980;5.646;2023-05-10T13:31:55;19.8;60.3
79187;SHT31;68762;51.980;5.646;2023-05-10T13:34:26;19.7;61.3
79187;SHT31;68762;51.980;5.646;2023-05-10T13:36:54;19.6;62.3
79187;SHT31;68762;51.980;5.646;2023-05-10T13:39:23;19.4;62.5
79187;SHT31;68762;51.980;5.646;2023-05-10T13:41:52;19.3;63.0
79187;SHT31;68762;51.980;5.646;2023-05-10T13:44:23;19.2;63.8
79187;SHT31;68762;51.980;5.646;2023-05-10T13:46:54;19.1;64.7
79187;SHT31;68762;51.980;5.646;2023-05-10T13:49:22;19.0;63.9
79187;SHT31;68762;51.980;5.646;2023-05-10T13:51:51;19.0;64.5
79187;SHT31;68762;51.980;5.646;2023-05-10T13:54:20;18.9;64.8
79187;SHT31;68762;51.980;5.646;2023-05-10T13:56:49;18.8;63.9
79187;SHT31;68762;51.980;5.646;2023-05-10T13:59:18;18.8;64.8
79187;SHT31;68762;51.980;5.646;2023-05-10T14:01:48;18.7;64.9
79187;SHT31;68762;51.980;5.646;2023-05-10T14:04:17;18.7;65.4
79187;SHT31;68762;51.980;5.646;2023-05-10T14:06:46;18.6;65.4
79187;SHT31;68762;51.980;5.646;2023-05-10T14:09:16;18.6;65.6
79187;SHT31;68762;51.980;5.646;2023-05-10T14:11:45;18.6;66.3
79187;SHT31;68762;51.980;5.646;2023-05-10T14:14:14;18.5;66.1
79187;SHT31;68762;51.980;5.646;2023-05-10T14:16:44;18.5;67.1
79187;SHT31;68762;51.980;5.646;2023-05-10T14:19:15;18.5;67.3
79187;SHT31;68762;51.980;5.646;2023-05-10T14:21:44;18.5;67.3
79187;SHT31;68762;51.980;5.646;2023-05-10T14:24:12;18.5;66.6
79187;SHT31;68762;51.980;5.646;2023-05-10T14:26:41;18.5;65.4
79187;SHT31;68762;51.980;5.646;2023-05-10T14:29:09;18.5;66.6
79187;SHT31;68762;51.980;5.646;2023-05-10T14:31:38;18.5;65.6
79187;SHT31;68762;51.980;5.646;2023-05-10T14:34:06;18.5;66.3
79187;SHT31;68762;51.980;5.646;2023-05-10T14:36:35;18.5;67.7
79187;SHT31;68762;51.980;5.646;2023-05-10T14:39:03;18.6;67.0
79187;SHT31;68762;51.980;5.646;2023-05-10T14:41:35;18.6;67.4
79187;SHT31;68762;51.980;5.646;2023-05-10T14:44:05;18.6;66.9
79187;SHT31;68762;51.980;5.646;2023-05-10T14:46:34;18.6;66.1
79187;SHT31;68762;51.980;5.646;2023-05-10T14:49:02;18.7;66.4
79187;SHT31;68762;51.980;5.646;2023-05-10T14:51:32;18.7;66.5
79187;SHT31;68762;51.980;5.646;2023-05-10T14:54:03;18.7;66.6
79187;SHT31;68762;51.980;5.646;2023-05-10T14:56:31;18.8;67.3
79187;SHT31;68762;51.980;5.646;2023-05-10T14:59:00;18.8;67.4
79187;SHT31;68762;51.980;5.646;2023-05-10T15:01:32;18.9;66.7
79187;SHT31;68762;51.980;5.646;2023-05-10T15:04:03;18.9;67.4
79187;SHT31;68762;51.980;5.646;2023-05-10T15:06:33;19.0;67.8
79187;SHT31;68762;51.980;5.646;2023-05-10T15:09:03;19.0;66.2
79187;SHT31;68762;51.980;5.646;2023-05-10T15:11:32;19.1;64.6
79187;SHT31;68762;51.980;5.646;2023-05-10T15:14:01;19.1;65.6
79187;SHT31;68762;51.980;5.646;2023-05-10T15:16:30;19.1;66.5
79187;SHT31;68762;51.980;5.646;2023-05-10T15:18:58;19.2;66.8
79187;SHT31;68762;51.980;5.646;2023-05-10T15:21:27;19.2;65.2
79187;SHT31;68762;51.980;5.646;2023-05-10T15:24:00;19.3;65.1
79187;SHT31;68762;51.980;5.646;2023-05-10T15:26:29;19.3;65.8
79187;SHT31;68762;51.980;5.646;2023-05-10T15:28:58;19.3;66.1
79187;SHT31;68762;51.980;5.646;2023-05-10T15:31:26;19.4;64.8
79187;SHT31;68762;51.980;5.646;2023-05-10T15:33:58;19.4;65.1
79187;SHT31;68762;51.980;5.646;2023-05-10T15:36:27;19.4;64.9
79187;SHT31;68762;51.980;5.646;2023-05-10T15:38:55;19.5;65.2
79187;SHT31;68762;51.980;5.646;2023-05-10T15:41:24;19.5;63.5
79187;SHT31;68762;51.980;5.646;2023-05-10T15:43:54;19.6;64.9
79187;SHT31;68762;51.980;5.646;2023-05-10T15:46:25;19.6;62.9
79187;SHT31;68762;51.980;5.646;2023-05-10T15:48:54;19.6;63.5
79187;SHT31;68762;51.980;5.646;2023-05-10T15:51:25;19.6;62.4
79187;SHT31;68762;51.980;5.646;2023-05-10T15:53:53;19.6;62.2
79187;SHT31;68762;51.980;5.646;2023-05-10T15:56:22;19.7;62.3
79187;SHT31;68762;51.980;5.646;2023-05-10T15:58:52;19.7;63.6
79187;SHT31;68762;51.980;5.646;2023-05-10T16:01:20;19.7;62.3
79187;SHT31;68762;51.980;5.646;2023-05-10T16:03:49;19.6;61.8
79187;SHT31;68762;51.980;5.646;2023-05-10T16:06:17;19.6;62.9
79187;SHT31;68762;51.980;5.646;2023-05-10T16:08:46;19.6;63.3
79187;SHT31;68762;51.980;5.646;2023-05-10T16:11:15;19.6;62.7
79187;SHT31;68762;51.980;5.646;2023-05-10T16:13:44;19.6;63.8
79187;SHT31;68762;51.980;5.646;2023-05-10T16:16:12;19.6;62.9
79187;SHT31;68762;51.980;5.646;2023-05-10T16:18:41;19.6;62.4
79187;SHT31;68762;51.980;5.646;2023-05-10T16:21:09;19.7;61.8
79187;SHT31;68762;51.980;5.646;2023-05-10T16:23:38;19.7;62.8